Strilborg — LIZB — position and weather

sailwx.info

Track history (hours):
 
Tides and Currents Weather Stations Pressure Air Temp Water Temp Dewpoint Dewpoint Depression Visibility Wind Speed Wind Dir Waves Ship Positions

Strilborg

Last reported at 2017-Oct-17 16:28 UTC. Time now 2017-Oct-17 16:58 UTC.
Position N 70°38' E 023°39'.

Length 75 m; draft 5.5 m.

Type: Tug. MMSI: 259469000.

Date/timePositionNaut miles runAvg speedWind from/ knotsBaromVisibWave heightAir tempDewpointWater temp
2017-Oct-17 16:28N 70°38' E 023°39'1 2.2
2017-Oct-17 16:00N 70°37' E 023°37'4 8.6
2017-Oct-17 15:30N 70°33' E 023°37'0 0.5
2017-Oct-17 15:00N 70°33' E 023°37'1 1.4
2017-Oct-17 14:30N 70°32' E 023°39'1 1.1
2017-Oct-17 14:00N 70°32' E 023°40'0 0.4
2017-Oct-17 13:30N 70°32' E 023°40'0 0.5
2017-Oct-17 13:00N 70°32' E 023°39'0 0.5
2017-Oct-17 12:30N 70°32' E 023°39'1 1.3
2017-Oct-17 12:00N 70°33' E 023°38'1 1.6
2017-Oct-17 11:30N 70°34' E 023°37'1 1.7
2017-Oct-17 11:00N 70°35' E 023°37'1 1.3
2017-Oct-17 10:30N 70°35' E 023°37'3 5.5
2017-Oct-17 10:00N 70°38' E 023°39'0 0.0
2017-Oct-17 09:30N 70°38' E 023°39'0 0.0
2017-Oct-17 09:00N 70°38' E 023°39'0 0.0
2017-Oct-17 08:30N 70°38' E 023°39'0 0.0
2017-Oct-17 08:00N 70°38' E 023°39'0 0.0
2017-Oct-17 07:30N 70°38' E 023°39'0 0.0
2017-Oct-17 07:00N 70°38' E 023°39'0 0.0
2017-Oct-17 06:30N 70°38' E 023°39'0 0.0
2017-Oct-17 06:00N 70°38' E 023°39'0 0.0
2017-Oct-17 05:30N 70°38' E 023°39'0 0.0
2017-Oct-17 05:00N 70°38' E 023°39'0 0.0
2017-Oct-17 04:30N 70°38' E 023°39'0 0.0
2017-Oct-17 04:00N 70°38' E 023°39'0 0.0
2017-Oct-17 03:30N 70°38' E 023°39'0 0.0
2017-Oct-17 03:00N 70°38' E 023°39'0 0.0
2017-Oct-17 02:30N 70°38' E 023°39'0 0.0
2017-Oct-17 02:00N 70°38' E 023°39'0 0.0
2017-Oct-17 01:30N 70°38' E 023°39'0 0.0
2017-Oct-17 01:00N 70°38' E 023°39'0 0.0
2017-Oct-17 00:30N 70°38' E 023°39'0 0.0
2017-Oct-16 23:59N 70°38' E 023°39'0 0.0
2017-Oct-16 23:29N 70°38' E 023°39'0 0.0
2017-Oct-16 22:59N 70°38' E 023°39'0 0.0
2017-Oct-16 22:29N 70°38' E 023°39'0 0.0
2017-Oct-16 21:59N 70°38' E 023°39'0 0.0
2017-Oct-16 21:29N 70°38' E 023°39'0 0.0
2017-Oct-16 20:59N 70°38' E 023°39'0 0.0
2017-Oct-16 20:29N 70°38' E 023°39'0 0.0
2017-Oct-16 19:59N 70°38' E 023°39'0 0.0
2017-Oct-16 19:29N 70°38' E 023°39'0 0.0
2017-Oct-16 18:59N 70°38' E 023°39'0 0.0
2017-Oct-16 18:29N 70°38' E 023°39'0 0.0
2017-Oct-16 17:59N 70°38' E 023°39'0 0.0
2017-Oct-16 17:29N 70°38' E 023°39'0 0.0
2017-Oct-16 16:59N 70°38' E 023°39'0 0.0
2017-Oct-16 16:29N 70°38' E 023°39'0 0.0
2017-Oct-16 15:59N 70°38' E 023°39'0 0.0
2017-Oct-16 15:29N 70°38' E 023°39'0 0.0
2017-Oct-16 14:59N 70°38' E 023°39'3 3.5
2017-Oct-16 14:00N 70°41' E 023°34'4 8.0
2017-Oct-16 13:30N 70°44' E 023°28'1 2.2
2017-Oct-16 13:00N 70°45' E 023°27'3 5.0
2017-Oct-16 12:30N 70°46' E 023°34'4 8.6
2017-Oct-16 12:00N 70°48' E 023°45'4 8.8
2017-Oct-16 11:30N 70°51' E 023°56'4 8.7
2017-Oct-16 11:00N 70°54' E 024°06'4 7.1
2017-Oct-16 10:30N 70°56' E 024°14'4 7.4
2017-Oct-16 09:59N 70°59' E 024°22'4 7.9
2017-Oct-16 09:29N 71°01' E 024°32'4 7.3
2017-Oct-16 09:00N 71°01' E 024°43'4 8.2
2017-Oct-16 08:29N 70°60' E 024°55'4 8.3
2017-Oct-16 08:00N 70°59' E 025°07'4 8.5
2017-Oct-16 07:30N 70°59' E 025°20'4 8.0
2017-Oct-16 07:00N 70°57' E 025°30'4 8.4
2017-Oct-16 06:30N 70°55' E 025°42'1 2.3
2017-Oct-16 06:00N 70°54' E 025°44'0 0.0
2017-Oct-16 05:30N 70°54' E 025°44'0 0.1
2017-Oct-16 05:00N 70°54' E 025°44'0 0.0
2017-Oct-16 04:30N 70°54' E 025°44'0 0.0
2017-Oct-16 04:00N 70°54' E 025°44'0 0.0
2017-Oct-16 03:30N 70°54' E 025°44'0 0.0
2017-Oct-16 03:00N 70°54' E 025°44'0 0.0
2017-Oct-16 02:30N 70°54' E 025°44'0 0.0
2017-Oct-16 02:00N 70°54' E 025°44'0 0.0
2017-Oct-16 01:30N 70°54' E 025°44'0 0.0
2017-Oct-16 01:00N 70°54' E 025°44'0 0.0
2017-Oct-16 00:30N 70°54' E 025°44'0 0.0
2017-Oct-16 00:00N 70°54' E 025°44'0 0.0
2017-Oct-15 23:30N 70°54' E 025°44'0 0.0
2017-Oct-15 23:00N 70°54' E 025°44'0 0.0
2017-Oct-15 22:30N 70°54' E 025°44'0 0.0
2017-Oct-15 22:00N 70°54' E 025°44'0 0.0
2017-Oct-15 21:30N 70°54' E 025°44'0 0.0
2017-Oct-15 21:00N 70°54' E 025°44'0 0.0
2017-Oct-15 20:30N 70°54' E 025°44'0 0.1
2017-Oct-15 20:00N 70°54' E 025°44'0 0.0
2017-Oct-15 19:30N 70°54' E 025°44'0 0.0
2017-Oct-15 19:00N 70°54' E 025°44'0 0.0
2017-Oct-15 18:30N 70°54' E 025°44'0 0.1
2017-Oct-15 18:00N 70°54' E 025°44'0 0.1
2017-Oct-15 17:30N 70°54' E 025°44'0 0.0
2017-Oct-15 17:00N 70°54' E 025°44'0 0.1
2017-Oct-15 16:30N 70°54' E 025°44'0 0.1
2017-Oct-15 16:00N 70°54' E 025°44'0 0.1
2017-Oct-15 15:30N 70°54' E 025°44'0 0.0
2017-Oct-15 15:00N 70°54' E 025°44'0 0.0
2017-Oct-15 14:00N 70°54' E 025°44'0 0.1
2017-Oct-15 13:30N 70°54' E 025°44'0 0.1
2017-Oct-15 13:00N 70°54' E 025°44'0 0.1
2017-Oct-15 12:30N 70°54' E 025°44'0 0.1
2017-Oct-15 12:00N 70°54' E 025°44'0 0.1
2017-Oct-15 11:30N 70°54' E 025°44'0 0.1
2017-Oct-15 11:00N 70°54' E 025°44'0 0.0
2017-Oct-15 10:30N 70°54' E 025°44'0 0.0
2017-Oct-15 10:00N 70°54' E 025°44'0 0.0
2017-Oct-15 09:30N 70°54' E 025°44'0 0.0
2017-Oct-15 08:59N 70°54' E 025°44'0 0.0
2017-Oct-15 08:29N 70°54' E 025°44'0 0.1
2017-Oct-15 07:59N 70°54' E 025°44'0 0.0
2017-Oct-15 07:29N 70°54' E 025°44'0 0.0
2017-Oct-15 06:59N 70°54' E 025°44'0 0.0
2017-Oct-15 06:29N 70°54' E 025°44'0 0.0
2017-Oct-15 05:59N 70°54' E 025°44'0 0.0
2017-Oct-15 05:29N 70°54' E 025°44'0 0.0
2017-Oct-15 04:59N 70°54' E 025°44'0 0.0
2017-Oct-15 04:29N 70°54' E 025°44'0 0.0
2017-Oct-15 03:59N 70°54' E 025°44'0 0.0
2017-Oct-15 03:29N 70°54' E 025°44'0 0.1
2017-Oct-15 02:59N 70°54' E 025°44'0 0.0
2017-Oct-15 02:29N 70°54' E 025°44'0 0.0
2017-Oct-15 01:59N 70°54' E 025°44'0 0.0
2017-Oct-15 01:29N 70°54' E 025°44'0 0.0
2017-Oct-15 00:59N 70°54' E 025°44'0 0.0
2017-Oct-15 00:29N 70°54' E 025°44'0 0.1
2017-Oct-14 23:59N 70°54' E 025°44'0 0.1
2017-Oct-14 23:29N 70°54' E 025°44'0 0.1
2017-Oct-14 22:59N 70°54' E 025°44'0 0.1
2017-Oct-14 22:29N 70°54' E 025°44'0 0.0
2017-Oct-14 21:59N 70°54' E 025°44'0 0.0
2017-Oct-14 21:29N 70°54' E 025°44'0 0.1
2017-Oct-14 20:59N 70°54' E 025°44'0 0.0
2017-Oct-14 20:29N 70°54' E 025°44'0 0.0
2017-Oct-14 19:59N 70°54' E 025°44'0 0.1
2017-Oct-14 19:29N 70°54' E 025°44'0 0.1
2017-Oct-14 18:59N 70°54' E 025°44'0 0.0
2017-Oct-14 18:29N 70°54' E 025°44'0 0.1
2017-Oct-14 17:59N 70°54' E 025°44'0 0.1
2017-Oct-14 17:29N 70°54' E 025°44'0 0.1
2017-Oct-14 16:59N 70°54' E 025°44'0 0.0
2017-Oct-14 16:29N 70°54' E 025°44'0 0.0
2017-Oct-14 15:59N 70°54' E 025°44'0 0.0
2017-Oct-14 15:29N 70°54' E 025°44'0 0.0
2017-Oct-14 14:59N 70°54' E 025°44'0 0.1
2017-Oct-14 14:29N 70°54' E 025°44'0 0.1
2017-Oct-14 13:59N 70°54' E 025°44'0 0.0
2017-Oct-14 13:29N 70°54' E 025°44'0 0.0
2017-Oct-14 12:59N 70°54' E 025°44'0 0.1
2017-Oct-14 12:29N 70°54' E 025°44'0 0.0
2017-Oct-14 11:59N 70°54' E 025°44'0 0.0
2017-Oct-14 11:29N 70°54' E 025°44'0 0.0
2017-Oct-14 10:59N 70°54' E 025°44'0 0.1
2017-Oct-14 10:29N 70°54' E 025°44'0 0.1
2017-Oct-14 09:59N 70°54' E 025°44'0 0.1
2017-Oct-14 09:29N 70°54' E 025°44'0 0.1
2017-Oct-14 08:59N 70°54' E 025°44'0 0.0
2017-Oct-14 08:29N 70°54' E 025°44'0 0.0
2017-Oct-14 07:59N 70°54' E 025°44'0 0.0
2017-Oct-14 07:29N 70°54' E 025°44'0 0.0
2017-Oct-14 06:59N 70°54' E 025°44'0 0.0
2017-Oct-14 06:29N 70°54' E 025°44'0 0.1
2017-Oct-14 05:59N 70°54' E 025°44'0 0.1
2017-Oct-14 05:29N 70°54' E 025°44'0 0.1
2017-Oct-14 04:59N 70°54' E 025°44'0 0.1
2017-Oct-14 04:29N 70°54' E 025°44'0 0.1
2017-Oct-14 03:59N 70°54' E 025°44'0 0.1
2017-Oct-14 03:29N 70°54' E 025°44'0 0.0
2017-Oct-14 02:59N 70°54' E 025°44'0 0.0
2017-Oct-14 02:29N 70°54' E 025°44'0 0.1
2017-Oct-14 01:58N 70°54' E 025°44'0 0.0
2017-Oct-14 01:28N 70°54' E 025°44'0 0.1
2017-Oct-14 00:58N 70°54' E 025°44'0 0.0
2017-Oct-14 00:28N 70°54' E 025°44'0 0.0
2017-Oct-13 23:58N 70°54' E 025°44'0 0.0
2017-Oct-13 23:28N 70°54' E 025°44'0 0.0
2017-Oct-13 22:58N 70°54' E 025°44'0 0.0
2017-Oct-13 22:28N 70°54' E 025°44'0 0.0
2017-Oct-13 21:58N 70°54' E 025°44'0 0.0
2017-Oct-13 21:28N 70°54' E 025°44'0 0.0
2017-Oct-13 20:58N 70°54' E 025°44'0 0.0
2017-Oct-13 20:28N 70°54' E 025°44'0 0.0
2017-Oct-13 19:58N 70°54' E 025°44'0 0.1
2017-Oct-13 19:28N 70°54' E 025°44'0 0.1
2017-Oct-13 18:58N 70°54' E 025°44'0 0.1
2017-Oct-13 18:28N 70°54' E 025°44'0 0.0
2017-Oct-13 17:58N 70°54' E 025°44'0 0.0
2017-Oct-13 17:28N 70°54' E 025°44'0 0.1
2017-Oct-13 16:58N 70°54' E 025°44'0 0.0
2017-Oct-13 16:28N 70°54' E 025°44'0 0.0
2017-Oct-13 15:58N 70°54' E 025°44'0 0.0
2017-Oct-13 15:28N 70°54' E 025°44'0 0.0
2017-Oct-13 14:58N 70°54' E 025°44'0 0.0
2017-Oct-13 14:28N 70°54' E 025°44'0 0.0
2017-Oct-13 13:58N 70°54' E 025°44'0 0.0
2017-Oct-13 13:22N 70°54' E 025°44'0 0.0
2017-Oct-13 12:58N 70°54' E 025°44'0 0.0
2017-Oct-13 12:28N 70°54' E 025°44'0 0.0
2017-Oct-13 11:58N 70°54' E 025°44'0 0.0
2017-Oct-13 11:28N 70°54' E 025°44'0 0.0
2017-Oct-13 10:58N 70°54' E 025°44'0 0.0
2017-Oct-13 10:28N 70°54' E 025°44'0 0.0
2017-Oct-13 09:58N 70°54' E 025°44'0 0.0
2017-Oct-13 09:28N 70°54' E 025°44'0 0.0
2017-Oct-13 08:58N 70°54' E 025°44'0 0.0
2017-Oct-13 08:28N 70°54' E 025°44'0 0.0
2017-Oct-13 07:58N 70°54' E 025°44'0 0.0
2017-Oct-12 16:21N 70°54' E 025°44'0 0.0
2017-Oct-12 16:00N 70°54' E 025°44'0 0.0
2017-Oct-12 15:30N 70°54' E 025°44'0 0.0
2017-Oct-12 15:00N 70°54' E 025°44'0 0.0
2017-Oct-12 14:30N 70°54' E 025°44'0 0.0
2017-Oct-12 14:00N 70°54' E 025°44'0 0.0
2017-Oct-12 13:30N 70°54' E 025°44'0 0.0
2017-Oct-12 13:00N 70°54' E 025°44'0 0.0
2017-Oct-12 12:30N 70°54' E 025°44'0 0.0
2017-Oct-12 12:00N 70°54' E 025°44'0 0.0
2017-Oct-12 11:30N 70°54' E 025°44'0 0.1
2017-Oct-12 11:00N 70°54' E 025°44'0 0.0
2017-Oct-12 10:30N 70°54' E 025°44'0 0.0
2017-Oct-12 10:00N 70°54' E 025°44'0 0.0
2017-Oct-12 09:30N 70°54' E 025°44'0 0.0
2017-Oct-12 09:00N 70°54' E 025°44'0 0.0
2017-Oct-12 08:30N 70°54' E 025°44'0 0.0
2017-Oct-12 08:00N 70°54' E 025°44'0 0.0
2017-Oct-12 07:30N 70°54' E 025°44'0 0.0
2017-Oct-12 07:00N 70°54' E 025°44'0 0.0
2017-Oct-12 06:30N 70°54' E 025°44'0 0.0
2017-Oct-12 06:00N 70°54' E 025°44'0 0.0
2017-Oct-12 05:30N 70°54' E 025°44'0 0.0
2017-Oct-12 05:00N 70°54' E 025°44'0 0.0
2017-Oct-12 04:30N 70°54' E 025°44'0 0.0
2017-Oct-12 04:00N 70°54' E 025°44'0 0.0
2017-Oct-12 03:30N 70°54' E 025°44'0 0.0
2017-Oct-12 03:00N 70°54' E 025°44'0 0.0
2017-Oct-12 02:30N 70°54' E 025°44'0 0.1
2017-Oct-12 02:00N 70°54' E 025°44'0 0.0
2017-Oct-12 01:30N 70°54' E 025°44'0 0.0
2017-Oct-12 01:00N 70°54' E 025°44'0 0.0
2017-Oct-12 00:30N 70°54' E 025°44'0 0.0
2017-Oct-12 00:00N 70°54' E 025°44'0 0.0
2017-Oct-11 23:30N 70°54' E 025°44'0 0.0
2017-Oct-11 23:00N 70°54' E 025°44'0 0.0
2017-Oct-11 22:30N 70°54' E 025°44'0 0.0
2017-Oct-11 22:00N 70°54' E 025°44'0 0.0
2017-Oct-11 21:30N 70°54' E 025°44'0 0.1
2017-Oct-11 21:00N 70°54' E 025°44'0 0.0
2017-Oct-11 20:30N 70°54' E 025°44'0 0.0
2017-Oct-11 20:00N 70°54' E 025°44'0 0.0
2017-Oct-11 19:30N 70°54' E 025°44'0 0.0
2017-Oct-11 19:00N 70°54' E 025°44'0 0.0
2017-Oct-11 18:30N 70°54' E 025°44'0 0.0
2017-Oct-11 18:00N 70°54' E 025°44'0 0.0
2017-Oct-11 17:30N 70°54' E 025°44'0 0.1
2017-Oct-11 17:00N 70°54' E 025°44'0 0.0
2017-Oct-10 23:59N 70°54' E 025°44'0 0.0
2017-Oct-10 23:29N 70°54' E 025°44'0 0.0
2017-Oct-10 22:59N 70°54' E 025°44'0 0.0
2017-Oct-10 22:29N 70°54' E 025°44'0 0.0
2017-Oct-10 21:59N 70°54' E 025°44'0 0.1
2017-Oct-10 21:29N 70°54' E 025°44'0 0.0
2017-Oct-10 20:59N 70°54' E 025°44'0 0.0
2017-Oct-10 20:29N 70°54' E 025°44'0 0.0
2017-Oct-10 19:59N 70°54' E 025°44'0 0.0
2017-Oct-10 19:29N 70°54' E 025°44'0 0.0
2017-Oct-10 18:59N 70°54' E 025°44'0 0.0
2017-Oct-10 18:29N 70°54' E 025°44'0 0.1
2017-Oct-10 17:59N 70°54' E 025°44'0 0.0
2017-Oct-10 17:29N 70°54' E 025°44'0 0.1
2017-Oct-10 16:59N 70°54' E 025°44'0 0.1
2017-Oct-10 16:29N 70°54' E 025°44'0 0.0
2017-Oct-10 15:59N 70°54' E 025°44'0 0.0
2017-Oct-10 15:29N 70°54' E 025°44'0 0.0
2017-Oct-10 14:59N 70°54' E 025°44'0 0.0
2017-Oct-10 13:59N 70°54' E 025°44'0 0.0
2017-Oct-10 13:29N 70°54' E 025°44'0 0.0
2017-Oct-10 12:59N 70°54' E 025°44'0 0.0
2017-Oct-10 12:29N 70°54' E 025°44'0 0.0
2017-Oct-10 11:59N 70°54' E 025°44'0 0.0
2017-Oct-10 11:29N 70°54' E 025°44'0 0.0
2017-Oct-10 10:59N 70°54' E 025°44'0 0.0
2017-Oct-10 10:29N 70°54' E 025°44'0 0.0
2017-Oct-10 09:59N 70°54' E 025°44'0 0.0
2017-Oct-10 09:29N 70°54' E 025°44'0 0.0
2017-Oct-10 08:59N 70°54' E 025°44'0 0.0
2017-Oct-10 08:29N 70°54' E 025°44'0 0.0
2017-Oct-10 07:59N 70°54' E 025°44'0 0.0
2017-Oct-10 07:29N 70°54' E 025°44'0 0.0
2017-Oct-10 06:59N 70°54' E 025°44'0 0.0
2017-Oct-10 06:29N 70°54' E 025°44'0 0.0
2017-Oct-10 05:59N 70°54' E 025°44'0 0.0
2017-Oct-10 05:29N 70°54' E 025°44'0 0.0
2017-Oct-10 04:59N 70°54' E 025°44'0 0.0
2017-Oct-10 04:29N 70°54' E 025°44'0 0.0
2017-Oct-10 03:59N 70°54' E 025°44'0 0.0
2017-Oct-10 03:29N 70°54' E 025°44'0 0.0
2017-Oct-10 02:58N 70°54' E 025°44'0 0.0
2017-Oct-10 02:28N 70°54' E 025°44'0 0.0
2017-Oct-10 01:58N 70°54' E 025°44'0 0.0
2017-Oct-10 01:28N 70°54' E 025°44'0 0.0
2017-Oct-10 00:58N 70°54' E 025°44'0 0.0
2017-Oct-10 00:28N 70°54' E 025°44'0 0.0
2017-Oct-09 23:58N 70°54' E 025°44'0 0.0
2017-Oct-09 23:28N 70°54' E 025°44'0 0.0
2017-Oct-09 22:58N 70°54' E 025°44'0 0.0
2017-Oct-09 22:28N 70°54' E 025°44'0 0.0
2017-Oct-09 21:58N 70°54' E 025°44'0 0.0
2017-Oct-09 21:28N 70°54' E 025°44'0 0.0
2017-Oct-09 20:58N 70°54' E 025°44'0 0.0
2017-Oct-09 20:28N 70°54' E 025°44'0 0.0
2017-Oct-09 19:58N 70°54' E 025°44'0 0.0
2017-Oct-09 19:28N 70°54' E 025°44'0 0.0
2017-Oct-09 18:58N 70°54' E 025°44'0 0.0
2017-Oct-09 18:28N 70°54' E 025°44'0 0.0
2017-Oct-09 17:58N 70°54' E 025°44'0 0.0
2017-Oct-09 17:28N 70°54' E 025°44'0 0.0
2017-Oct-09 16:58N 70°54' E 025°44'0 0.0
2017-Oct-09 16:28N 70°54' E 025°44'0 0.0
2017-Oct-09 15:58N 70°54' E 025°44'0 0.1
2017-Oct-09 15:28N 70°54' E 025°44'0 0.0
2017-Oct-09 14:58N 70°54' E 025°44'0 0.0
2017-Oct-09 14:28N 70°54' E 025°44'0 0.1
2017-Oct-09 13:58N 70°54' E 025°44'0 0.0
2017-Oct-09 13:30N 70°54' E 025°44'3 6.5
2017-Oct-09 13:00N 70°57' E 025°49'1 2.9
2017-Oct-09 12:30N 70°58' E 025°45'0 0.0
2017-Oct-09 12:00N 70°58' E 025°45'0 0.1
2017-Oct-09 11:30N 70°58' E 025°45'0 0.4
2017-Oct-09 11:00N 70°58' E 025°45'1 1.9
2017-Oct-09 10:30N 70°57' E 025°48'2 4.9
2017-Oct-09 10:00N 70°58' E 025°55'2 3.1
2017-Oct-09 09:30N 70°59' E 025°58'2 3.5
2017-Oct-09 09:00N 70°58' E 025°55'510.1
2017-Oct-09 08:30N 70°54' E 025°44'0 0.1
2017-Oct-09 07:58N 70°54' E 025°44'0 0.0
2017-Oct-09 07:28N 70°54' E 025°44'0 0.0
2017-Oct-09 06:58N 70°54' E 025°44'0 0.0
2017-Oct-09 06:28N 70°54' E 025°44'0 0.0
2017-Oct-09 05:58N 70°54' E 025°44'0 0.0
2017-Oct-09 05:28N 70°54' E 025°44'0 0.0
2017-Oct-09 04:58N 70°54' E 025°44'0 0.0
2017-Oct-09 04:28N 70°54' E 025°44'0 0.0
2017-Oct-09 03:58N 70°54' E 025°44'0 0.0
2017-Oct-09 03:28N 70°54' E 025°44'0 0.0
2017-Oct-09 02:58N 70°54' E 025°44'0 0.0
2017-Oct-09 02:28N 70°54' E 025°44'0 0.0
2017-Oct-09 01:58N 70°54' E 025°44'0 0.0
2017-Oct-09 01:28N 70°54' E 025°44'0 0.0
2017-Oct-09 00:58N 70°54' E 025°44'0 0.0
2017-Oct-09 00:28N 70°54' E 025°44'0 0.0
2017-Oct-08 23:58N 70°54' E 025°44'0 0.0
2017-Oct-08 23:28N 70°54' E 025°44'0 0.0
2017-Oct-08 22:58N 70°54' E 025°44'0 0.0
2017-Oct-08 22:28N 70°54' E 025°44'0 0.0
2017-Oct-08 21:58N 70°54' E 025°44'0 0.0
2017-Oct-08 21:28N 70°54' E 025°44'0 0.0
2017-Oct-08 20:58N 70°54' E 025°44'0 0.0
2017-Oct-08 20:28N 70°54' E 025°44'0 0.0
2017-Oct-08 19:58N 70°54' E 025°44'0 0.0
2017-Oct-08 19:28N 70°54' E 025°44'0 0.0
2017-Oct-08 18:58N 70°54' E 025°44'0 0.0
2017-Oct-08 18:28N 70°54' E 025°44'0 0.0
2017-Oct-08 17:58N 70°54' E 025°44'0 0.0
2017-Oct-08 17:28N 70°54' E 025°44'0 0.0
2017-Oct-08 16:58N 70°54' E 025°44'0 0.0
2017-Oct-08 16:28N 70°54' E 025°44'0 0.0
2017-Oct-08 15:58N 70°54' E 025°44'0 0.0
2017-Oct-08 15:28N 70°54' E 025°44'0 0.0
2017-Oct-08 14:58N 70°54' E 025°44'0 0.0
2017-Oct-08 14:28N 70°54' E 025°44'0 0.0
2017-Oct-08 13:58N 70°54' E 025°44'0 0.0
2017-Oct-08 13:28N 70°54' E 025°44'0 0.0
2017-Oct-08 12:58N 70°54' E 025°44'0 0.0
2017-Oct-08 12:28N 70°54' E 025°44'0 0.0
2017-Oct-08 11:58N 70°54' E 025°44'0 0.0
2017-Oct-08 11:28N 70°54' E 025°44'0 0.0
2017-Oct-08 11:01N 70°54' E 025°44'0 0.0
2017-Oct-08 10:31N 70°54' E 025°44'0 0.0
2017-Oct-08 10:00N 70°54' E 025°44'0 0.0
2017-Oct-08 09:30N 70°54' E 025°44'0 0.0
2017-Oct-08 09:00N 70°54' E 025°44'0 0.0
2017-Oct-08 08:30N 70°54' E 025°44'0 0.0
2017-Oct-08 08:00N 70°54' E 025°44'0 0.0
2017-Oct-08 07:30N 70°54' E 025°44'0 0.0
2017-Oct-08 07:00N 70°54' E 025°44'0 0.0
2017-Oct-08 06:30N 70°54' E 025°44'0 0.0
2017-Oct-08 06:00N 70°54' E 025°44'0 0.0
2017-Oct-08 05:30N 70°54' E 025°44'0 0.0
2017-Oct-08 05:00N 70°54' E 025°44'0 0.0
2017-Oct-08 04:30N 70°54' E 025°44'0 0.0
2017-Oct-08 04:00N 70°54' E 025°44'0 0.0
2017-Oct-08 03:30N 70°54' E 025°44'0 0.0
2017-Oct-08 03:00N 70°54' E 025°44'0 0.0
2017-Oct-08 02:30N 70°54' E 025°44'0 0.0
2017-Oct-08 02:00N 70°54' E 025°44'0 0.0
2017-Oct-08 01:30N 70°54' E 025°44'0 0.0
2017-Oct-08 01:00N 70°54' E 025°44'0 0.0
2017-Oct-08 00:30N 70°54' E 025°44'0 0.0
2017-Oct-08 00:00N 70°54' E 025°44'0 0.0
2017-Oct-07 23:30N 70°54' E 025°44'0 0.0
2017-Oct-07 23:00N 70°54' E 025°44'0 0.0
2017-Oct-07 22:30N 70°54' E 025°44'0 0.0
2017-Oct-07 22:00N 70°54' E 025°44'0 0.0
2017-Oct-07 21:30N 70°54' E 025°44'0 0.0
2017-Oct-07 21:00N 70°54' E 025°44'0 0.0
2017-Oct-07 20:30N 70°54' E 025°44'0 0.0
2017-Oct-07 20:00N 70°54' E 025°44'0 0.0
2017-Oct-07 19:30N 70°54' E 025°44'0 0.0
2017-Oct-07 19:00N 70°54' E 025°44'0 0.0
2017-Oct-07 18:30N 70°54' E 025°44'0 0.0
2017-Oct-07 18:00N 70°54' E 025°44'0 0.0
2017-Oct-07 17:30N 70°54' E 025°44'0 0.0
2017-Oct-07 17:00N 70°54' E 025°44'0 0.0
2017-Oct-07 16:30N 70°54' E 025°44'  
Track history (hours):
 
Tides and Currents Weather Stations Pressure Air Temp Water Temp Dewpoint Dewpoint Depression Visibility Wind Speed Wind Dir Waves Ship Positions

Strilborg

Last reported at 2017-Oct-17 16:28 UTC. Time now 2017-Oct-17 16:58 UTC.
Position N 70°38' E 023°39'.

Length 75 m; draft 5.5 m.

Type: Tug. MMSI: 259469000.

Date/timePositionNaut miles runAvg speedWind from/ knotsBaromVisibWave heightAir tempDewpointWater temp
2017-Oct-17 16:28N 70°38' E 023°39'1 2.2
2017-Oct-17 16:00N 70°37' E 023°37'4 8.6
2017-Oct-17 15:30N 70°33' E 023°37'0 0.5
2017-Oct-17 15:00N 70°33' E 023°37'1 1.4
2017-Oct-17 14:30N 70°32' E 023°39'1 1.1
2017-Oct-17 14:00N 70°32' E 023°40'0 0.4
2017-Oct-17 13:30N 70°32' E 023°40'0 0.5
2017-Oct-17 13:00N 70°32' E 023°39'0 0.5
2017-Oct-17 12:30N 70°32' E 023°39'1 1.3
2017-Oct-17 12:00N 70°33' E 023°38'1 1.6
2017-Oct-17 11:30N 70°34' E 023°37'1 1.7
2017-Oct-17 11:00N 70°35' E 023°37'1 1.3
2017-Oct-17 10:30N 70°35' E 023°37'3 5.5
2017-Oct-17 10:00N 70°38' E 023°39'0 0.0
2017-Oct-17 09:30N 70°38' E 023°39'0 0.0
2017-Oct-17 09:00N 70°38' E 023°39'0 0.0
2017-Oct-17 08:30N 70°38' E 023°39'0 0.0
2017-Oct-17 08:00N 70°38' E 023°39'0 0.0
2017-Oct-17 07:30N 70°38' E 023°39'0 0.0
2017-Oct-17 07:00N 70°38' E 023°39'0 0.0
2017-Oct-17 06:30N 70°38' E 023°39'0 0.0
2017-Oct-17 06:00N 70°38' E 023°39'0 0.0
2017-Oct-17 05:30N 70°38' E 023°39'0 0.0
2017-Oct-17 05:00N 70°38' E 023°39'0 0.0
2017-Oct-17 04:30N 70°38' E 023°39'0 0.0
2017-Oct-17 04:00N 70°38' E 023°39'0 0.0
2017-Oct-17 03:30N 70°38' E 023°39'0 0.0
2017-Oct-17 03:00N 70°38' E 023°39'0 0.0
2017-Oct-17 02:30N 70°38' E 023°39'0 0.0
2017-Oct-17 02:00N 70°38' E 023°39'0 0.0
2017-Oct-17 01:30N 70°38' E 023°39'0 0.0
2017-Oct-17 01:00N 70°38' E 023°39'0 0.0
2017-Oct-17 00:30N 70°38' E 023°39'0 0.0
2017-Oct-16 23:59N 70°38' E 023°39'0 0.0
2017-Oct-16 23:29N 70°38' E 023°39'0 0.0
2017-Oct-16 22:59N 70°38' E 023°39'0 0.0
2017-Oct-16 22:29N 70°38' E 023°39'0 0.0
2017-Oct-16 21:59N 70°38' E 023°39'0 0.0
2017-Oct-16 21:29N 70°38' E 023°39'0 0.0
2017-Oct-16 20:59N 70°38' E 023°39'0 0.0
2017-Oct-16 20:29N 70°38' E 023°39'0 0.0
2017-Oct-16 19:59N 70°38' E 023°39'0 0.0
2017-Oct-16 19:29N 70°38' E 023°39'0 0.0
2017-Oct-16 18:59N 70°38' E 023°39'0 0.0
2017-Oct-16 18:29N 70°38' E 023°39'0 0.0
2017-Oct-16 17:59N 70°38' E 023°39'0 0.0
2017-Oct-16 17:29N 70°38' E 023°39'0 0.0
2017-Oct-16 16:59N 70°38' E 023°39'0 0.0
2017-Oct-16 16:29N 70°38' E 023°39'0 0.0
2017-Oct-16 15:59N 70°38' E 023°39'0 0.0
2017-Oct-16 15:29N 70°38' E 023°39'0 0.0
2017-Oct-16 14:59N 70°38' E 023°39'3 3.5
2017-Oct-16 14:00N 70°41' E 023°34'4 8.0
2017-Oct-16 13:30N 70°44' E 023°28'1 2.2
2017-Oct-16 13:00N 70°45' E 023°27'3 5.0
2017-Oct-16 12:30N 70°46' E 023°34'4 8.6
2017-Oct-16 12:00N 70°48' E 023°45'4 8.8
2017-Oct-16 11:30N 70°51' E 023°56'4 8.7
2017-Oct-16 11:00N 70°54' E 024°06'4 7.1
2017-Oct-16 10:30N 70°56' E 024°14'4 7.4
2017-Oct-16 09:59N 70°59' E 024°22'4 7.9
2017-Oct-16 09:29N 71°01' E 024°32'4 7.3
2017-Oct-16 09:00N 71°01' E 024°43'4 8.2
2017-Oct-16 08:29N 70°60' E 024°55'4 8.3
2017-Oct-16 08:00N 70°59' E 025°07'4 8.5
2017-Oct-16 07:30N 70°59' E 025°20'4 8.0
2017-Oct-16 07:00N 70°57' E 025°30'4 8.4
2017-Oct-16 06:30N 70°55' E 025°42'1 2.3
2017-Oct-16 06:00N 70°54' E 025°44'0 0.0
2017-Oct-16 05:30N 70°54' E 025°44'0 0.1
2017-Oct-16 05:00N 70°54' E 025°44'0 0.0
2017-Oct-16 04:30N 70°54' E 025°44'0 0.0
2017-Oct-16 04:00N 70°54' E 025°44'0 0.0
2017-Oct-16 03:30N 70°54' E 025°44'0 0.0
2017-Oct-16 03:00N 70°54' E 025°44'0 0.0
2017-Oct-16 02:30N 70°54' E 025°44'0 0.0
2017-Oct-16 02:00N 70°54' E 025°44'0 0.0
2017-Oct-16 01:30N 70°54' E 025°44'0 0.0
2017-Oct-16 01:00N 70°54' E 025°44'0 0.0
2017-Oct-16 00:30N 70°54' E 025°44'0 0.0
2017-Oct-16 00:00N 70°54' E 025°44'0 0.0
2017-Oct-15 23:30N 70°54' E 025°44'0 0.0
2017-Oct-15 23:00N 70°54' E 025°44'0 0.0
2017-Oct-15 22:30N 70°54' E 025°44'0 0.0
2017-Oct-15 22:00N 70°54' E 025°44'0 0.0
2017-Oct-15 21:30N 70°54' E 025°44'0 0.0
2017-Oct-15 21:00N 70°54' E 025°44'0 0.0
2017-Oct-15 20:30N 70°54' E 025°44'0 0.1
2017-Oct-15 20:00N 70°54' E 025°44'0 0.0
2017-Oct-15 19:30N 70°54' E 025°44'0 0.0
2017-Oct-15 19:00N 70°54' E 025°44'0 0.0
2017-Oct-15 18:30N 70°54' E 025°44'0 0.1
2017-Oct-15 18:00N 70°54' E 025°44'0 0.1
2017-Oct-15 17:30N 70°54' E 025°44'0 0.0
2017-Oct-15 17:00N 70°54' E 025°44'0 0.1
2017-Oct-15 16:30N 70°54' E 025°44'0 0.1
2017-Oct-15 16:00N 70°54' E 025°44'0 0.1
2017-Oct-15 15:30N 70°54' E 025°44'0 0.0
2017-Oct-15 15:00N 70°54' E 025°44'0 0.0
2017-Oct-15 14:00N 70°54' E 025°44'0 0.1
2017-Oct-15 13:30N 70°54' E 025°44'0 0.1
2017-Oct-15 13:00N 70°54' E 025°44'0 0.1
2017-Oct-15 12:30N 70°54' E 025°44'0 0.1
2017-Oct-15 12:00N 70°54' E 025°44'0 0.1
2017-Oct-15 11:30N 70°54' E 025°44'0 0.1
2017-Oct-15 11:00N 70°54' E 025°44'0 0.0
2017-Oct-15 10:30N 70°54' E 025°44'0 0.0
2017-Oct-15 10:00N 70°54' E 025°44'0 0.0
2017-Oct-15 09:30N 70°54' E 025°44'0 0.0
2017-Oct-15 08:59N 70°54' E 025°44'0 0.0
2017-Oct-15 08:29N 70°54' E 025°44'0 0.1
2017-Oct-15 07:59N 70°54' E 025°44'0 0.0
2017-Oct-15 07:29N 70°54' E 025°44'0 0.0
2017-Oct-15 06:59N 70°54' E 025°44'0 0.0
2017-Oct-15 06:29N 70°54' E 025°44'0 0.0
2017-Oct-15 05:59N 70°54' E 025°44'0 0.0
2017-Oct-15 05:29N 70°54' E 025°44'0 0.0
2017-Oct-15 04:59N 70°54' E 025°44'0 0.0
2017-Oct-15 04:29N 70°54' E 025°44'0 0.0
2017-Oct-15 03:59N 70°54' E 025°44'0 0.0
2017-Oct-15 03:29N 70°54' E 025°44'0 0.1
2017-Oct-15 02:59N 70°54' E 025°44'0 0.0
2017-Oct-15 02:29N 70°54' E 025°44'0 0.0
2017-Oct-15 01:59N 70°54' E 025°44'0 0.0
2017-Oct-15 01:29N 70°54' E 025°44'0 0.0
2017-Oct-15 00:59N 70°54' E 025°44'0 0.0
2017-Oct-15 00:29N 70°54' E 025°44'0 0.1
2017-Oct-14 23:59N 70°54' E 025°44'0 0.1
2017-Oct-14 23:29N 70°54' E 025°44'0 0.1
2017-Oct-14 22:59N 70°54' E 025°44'0 0.1
2017-Oct-14 22:29N 70°54' E 025°44'0 0.0
2017-Oct-14 21:59N 70°54' E 025°44'0 0.0
2017-Oct-14 21:29N 70°54' E 025°44'0 0.1
2017-Oct-14 20:59N 70°54' E 025°44'0 0.0
2017-Oct-14 20:29N 70°54' E 025°44'0 0.0
2017-Oct-14 19:59N 70°54' E 025°44'0 0.1
2017-Oct-14 19:29N 70°54' E 025°44'0 0.1
2017-Oct-14 18:59N 70°54' E 025°44'0 0.0
2017-Oct-14 18:29N 70°54' E 025°44'0 0.1
2017-Oct-14 17:59N 70°54' E 025°44'0 0.1
2017-Oct-14 17:29N 70°54' E 025°44'0 0.1
2017-Oct-14 16:59N 70°54' E 025°44'0 0.0
2017-Oct-14 16:29N 70°54' E 025°44'0 0.0
2017-Oct-14 15:59N 70°54' E 025°44'0 0.0
2017-Oct-14 15:29N 70°54' E 025°44'0 0.0
2017-Oct-14 14:59N 70°54' E 025°44'0 0.1
2017-Oct-14 14:29N 70°54' E 025°44'0 0.1
2017-Oct-14 13:59N 70°54' E 025°44'0 0.0
2017-Oct-14 13:29N 70°54' E 025°44'0 0.0
2017-Oct-14 12:59N 70°54' E 025°44'0 0.1
2017-Oct-14 12:29N 70°54' E 025°44'0 0.0
2017-Oct-14 11:59N 70°54' E 025°44'0 0.0
2017-Oct-14 11:29N 70°54' E 025°44'0 0.0
2017-Oct-14 10:59N 70°54' E 025°44'0 0.1
2017-Oct-14 10:29N 70°54' E 025°44'0 0.1
2017-Oct-14 09:59N 70°54' E 025°44'0 0.1
2017-Oct-14 09:29N 70°54' E 025°44'0 0.1
2017-Oct-14 08:59N 70°54' E 025°44'0 0.0
2017-Oct-14 08:29N 70°54' E 025°44'0 0.0
2017-Oct-14 07:59N 70°54' E 025°44'0 0.0
2017-Oct-14 07:29N 70°54' E 025°44'0 0.0
2017-Oct-14 06:59N 70°54' E 025°44'0 0.0
2017-Oct-14 06:29N 70°54' E 025°44'0 0.1
2017-Oct-14 05:59N 70°54' E 025°44'0 0.1
2017-Oct-14 05:29N 70°54' E 025°44'0 0.1
2017-Oct-14 04:59N 70°54' E 025°44'0 0.1
2017-Oct-14 04:29N 70°54' E 025°44'0 0.1
2017-Oct-14 03:59N 70°54' E 025°44'0 0.1
2017-Oct-14 03:29N 70°54' E 025°44'0 0.0
2017-Oct-14 02:59N 70°54' E 025°44'0 0.0
2017-Oct-14 02:29N 70°54' E 025°44'0 0.1
2017-Oct-14 01:58N 70°54' E 025°44'0 0.0
2017-Oct-14 01:28N 70°54' E 025°44'0 0.1
2017-Oct-14 00:58N 70°54' E 025°44'0 0.0
2017-Oct-14 00:28N 70°54' E 025°44'0 0.0
2017-Oct-13 23:58N 70°54' E 025°44'0 0.0
2017-Oct-13 23:28N 70°54' E 025°44'0 0.0
2017-Oct-13 22:58N 70°54' E 025°44'0 0.0
2017-Oct-13 22:28N 70°54' E 025°44'0 0.0
2017-Oct-13 21:58N 70°54' E 025°44'0 0.0
2017-Oct-13 21:28N 70°54' E 025°44'0 0.0
2017-Oct-13 20:58N 70°54' E 025°44'0 0.0
2017-Oct-13 20:28N 70°54' E 025°44'0 0.0
2017-Oct-13 19:58N 70°54' E 025°44'0 0.1
2017-Oct-13 19:28N 70°54' E 025°44'0 0.1
2017-Oct-13 18:58N 70°54' E 025°44'0 0.1
2017-Oct-13 18:28N 70°54' E 025°44'0 0.0
2017-Oct-13 17:58N 70°54' E 025°44'0 0.0
2017-Oct-13 17:28N 70°54' E 025°44'0 0.1
2017-Oct-13 16:58N 70°54' E 025°44'0 0.0
2017-Oct-13 16:28N 70°54' E 025°44'0 0.0
2017-Oct-13 15:58N 70°54' E 025°44'0 0.0
2017-Oct-13 15:28N 70°54' E 025°44'0 0.0
2017-Oct-13 14:58N 70°54' E 025°44'0 0.0
2017-Oct-13 14:28N 70°54' E 025°44'0 0.0
2017-Oct-13 13:58N 70°54' E 025°44'0 0.0
2017-Oct-13 13:22N 70°54' E 025°44'0 0.0
2017-Oct-13 12:58N 70°54' E 025°44'0 0.0
2017-Oct-13 12:28N 70°54' E 025°44'0 0.0
2017-Oct-13 11:58N 70°54' E 025°44'0 0.0
2017-Oct-13 11:28N 70°54' E 025°44'0 0.0
2017-Oct-13 10:58N 70°54' E 025°44'0 0.0
2017-Oct-13 10:28N 70°54' E 025°44'0 0.0
2017-Oct-13 09:58N 70°54' E 025°44'0 0.0
2017-Oct-13 09:28N 70°54' E 025°44'0 0.0
2017-Oct-13 08:58N 70°54' E 025°44'0 0.0
2017-Oct-13 08:28N 70°54' E 025°44'0 0.0
2017-Oct-13 07:58N 70°54' E 025°44'0 0.0
2017-Oct-12 16:21N 70°54' E 025°44'0 0.0
2017-Oct-12 16:00N 70°54' E 025°44'0 0.0
2017-Oct-12 15:30N 70°54' E 025°44'0 0.0
2017-Oct-12 15:00N 70°54' E 025°44'0 0.0
2017-Oct-12 14:30N 70°54' E 025°44'0 0.0
2017-Oct-12 14:00N 70°54' E 025°44'0 0.0
2017-Oct-12 13:30N 70°54' E 025°44'0 0.0
2017-Oct-12 13:00N 70°54' E 025°44'0 0.0
2017-Oct-12 12:30N 70°54' E 025°44'0 0.0
2017-Oct-12 12:00N 70°54' E 025°44'0 0.0
2017-Oct-12 11:30N 70°54' E 025°44'0 0.1
2017-Oct-12 11:00N 70°54' E 025°44'0 0.0
2017-Oct-12 10:30N 70°54' E 025°44'0 0.0
2017-Oct-12 10:00N 70°54' E 025°44'0 0.0
2017-Oct-12 09:30N 70°54' E 025°44'0 0.0
2017-Oct-12 09:00N 70°54' E 025°44'0 0.0
2017-Oct-12 08:30N 70°54' E 025°44'0 0.0
2017-Oct-12 08:00N 70°54' E 025°44'0 0.0
2017-Oct-12 07:30N 70°54' E 025°44'0 0.0
2017-Oct-12 07:00N 70°54' E 025°44'0 0.0
2017-Oct-12 06:30N 70°54' E 025°44'0 0.0
2017-Oct-12 06:00N 70°54' E 025°44'0 0.0
2017-Oct-12 05:30N 70°54' E 025°44'0 0.0
2017-Oct-12 05:00N 70°54' E 025°44'0 0.0
2017-Oct-12 04:30N 70°54' E 025°44'0 0.0
2017-Oct-12 04:00N 70°54' E 025°44'0 0.0
2017-Oct-12 03:30N 70°54' E 025°44'0 0.0
2017-Oct-12 03:00N 70°54' E 025°44'0 0.0
2017-Oct-12 02:30N 70°54' E 025°44'0 0.1
2017-Oct-12 02:00N 70°54' E 025°44'0 0.0
2017-Oct-12 01:30N 70°54' E 025°44'0 0.0
2017-Oct-12 01:00N 70°54' E 025°44'0 0.0
2017-Oct-12 00:30N 70°54' E 025°44'0 0.0
2017-Oct-12 00:00N 70°54' E 025°44'0 0.0
2017-Oct-11 23:30N 70°54' E 025°44'0 0.0
2017-Oct-11 23:00N 70°54' E 025°44'0 0.0
2017-Oct-11 22:30N 70°54' E 025°44'0 0.0
2017-Oct-11 22:00N 70°54' E 025°44'0 0.0
2017-Oct-11 21:30N 70°54' E 025°44'0 0.1
2017-Oct-11 21:00N 70°54' E 025°44'0 0.0
2017-Oct-11 20:30N 70°54' E 025°44'0 0.0
2017-Oct-11 20:00N 70°54' E 025°44'0 0.0
2017-Oct-11 19:30N 70°54' E 025°44'0 0.0
2017-Oct-11 19:00N 70°54' E 025°44'0 0.0
2017-Oct-11 18:30N 70°54' E 025°44'0 0.0
2017-Oct-11 18:00N 70°54' E 025°44'0 0.0
2017-Oct-11 17:30N 70°54' E 025°44'0 0.1
2017-Oct-11 17:00N 70°54' E 025°44'0 0.0
2017-Oct-10 23:59N 70°54' E 025°44'0 0.0
2017-Oct-10 23:29N 70°54' E 025°44'0 0.0
2017-Oct-10 22:59N 70°54' E 025°44'0 0.0
2017-Oct-10 22:29N 70°54' E 025°44'0 0.0
2017-Oct-10 21:59N 70°54' E 025°44'0 0.1
2017-Oct-10 21:29N 70°54' E 025°44'0 0.0
2017-Oct-10 20:59N 70°54' E 025°44'0 0.0
2017-Oct-10 20:29N 70°54' E 025°44'0 0.0
2017-Oct-10 19:59N 70°54' E 025°44'0 0.0
2017-Oct-10 19:29N 70°54' E 025°44'0 0.0
2017-Oct-10 18:59N 70°54' E 025°44'0 0.0
2017-Oct-10 18:29N 70°54' E 025°44'0 0.1
2017-Oct-10 17:59N 70°54' E 025°44'0 0.0
2017-Oct-10 17:29N 70°54' E 025°44'0 0.1
2017-Oct-10 16:59N 70°54' E 025°44'0 0.1
2017-Oct-10 16:29N 70°54' E 025°44'0 0.0
2017-Oct-10 15:59N 70°54' E 025°44'0 0.0
2017-Oct-10 15:29N 70°54' E 025°44'0 0.0
2017-Oct-10 14:59N 70°54' E 025°44'0 0.0
2017-Oct-10 13:59N 70°54' E 025°44'0 0.0
2017-Oct-10 13:29N 70°54' E 025°44'0 0.0
2017-Oct-10 12:59N 70°54' E 025°44'0 0.0
2017-Oct-10 12:29N 70°54' E 025°44'0 0.0
2017-Oct-10 11:59N 70°54' E 025°44'0 0.0
2017-Oct-10 11:29N 70°54' E 025°44'0 0.0
2017-Oct-10 10:59N 70°54' E 025°44'0 0.0
2017-Oct-10 10:29N 70°54' E 025°44'0 0.0
2017-Oct-10 09:59N 70°54' E 025°44'0 0.0
2017-Oct-10 09:29N 70°54' E 025°44'0 0.0
2017-Oct-10 08:59N 70°54' E 025°44'0 0.0
2017-Oct-10 08:29N 70°54' E 025°44'0 0.0
2017-Oct-10 07:59N 70°54' E 025°44'0 0.0
2017-Oct-10 07:29N 70°54' E 025°44'0 0.0
2017-Oct-10 06:59N 70°54' E 025°44'0 0.0
2017-Oct-10 06:29N 70°54' E 025°44'0 0.0
2017-Oct-10 05:59N 70°54' E 025°44'0 0.0
2017-Oct-10 05:29N 70°54' E 025°44'0 0.0
2017-Oct-10 04:59N 70°54' E 025°44'0 0.0
2017-Oct-10 04:29N 70°54' E 025°44'0 0.0
2017-Oct-10 03:59N 70°54' E 025°44'0 0.0
2017-Oct-10 03:29N 70°54' E 025°44'0 0.0
2017-Oct-10 02:58N 70°54' E 025°44'0 0.0
2017-Oct-10 02:28N 70°54' E 025°44'0 0.0
2017-Oct-10 01:58N 70°54' E 025°44'0 0.0
2017-Oct-10 01:28N 70°54' E 025°44'0 0.0
2017-Oct-10 00:58N 70°54' E 025°44'0 0.0
2017-Oct-10 00:28N 70°54' E 025°44'0 0.0
2017-Oct-09 23:58N 70°54' E 025°44'0 0.0
2017-Oct-09 23:28N 70°54' E 025°44'0 0.0
2017-Oct-09 22:58N 70°54' E 025°44'0 0.0
2017-Oct-09 22:28N 70°54' E 025°44'0 0.0
2017-Oct-09 21:58N 70°54' E 025°44'0 0.0
2017-Oct-09 21:28N 70°54' E 025°44'0 0.0
2017-Oct-09 20:58N 70°54' E 025°44'0 0.0
2017-Oct-09 20:28N 70°54' E 025°44'0 0.0
2017-Oct-09 19:58N 70°54' E 025°44'0 0.0
2017-Oct-09 19:28N 70°54' E 025°44'0 0.0
2017-Oct-09 18:58N 70°54' E 025°44'0 0.0
2017-Oct-09 18:28N 70°54' E 025°44'0 0.0
2017-Oct-09 17:58N 70°54' E 025°44'0 0.0
2017-Oct-09 17:28N 70°54' E 025°44'0 0.0
2017-Oct-09 16:58N 70°54' E 025°44'0 0.0
2017-Oct-09 16:28N 70°54' E 025°44'0 0.0
2017-Oct-09 15:58N 70°54' E 025°44'0 0.1
2017-Oct-09 15:28N 70°54' E 025°44'0 0.0
2017-Oct-09 14:58N 70°54' E 025°44'0 0.0
2017-Oct-09 14:28N 70°54' E 025°44'0 0.1
2017-Oct-09 13:58N 70°54' E 025°44'0 0.0
2017-Oct-09 13:30N 70°54' E 025°44'3 6.5
2017-Oct-09 13:00N 70°57' E 025°49'1 2.9
2017-Oct-09 12:30N 70°58' E 025°45'0 0.0
2017-Oct-09 12:00N 70°58' E 025°45'0 0.1
2017-Oct-09 11:30N 70°58' E 025°45'0 0.4
2017-Oct-09 11:00N 70°58' E 025°45'1 1.9
2017-Oct-09 10:30N 70°57' E 025°48'2 4.9
2017-Oct-09 10:00N 70°58' E 025°55'2 3.1
2017-Oct-09 09:30N 70°59' E 025°58'2 3.5
2017-Oct-09 09:00N 70°58' E 025°55'510.1
2017-Oct-09 08:30N 70°54' E 025°44'0 0.1
2017-Oct-09 07:58N 70°54' E 025°44'0 0.0
2017-Oct-09 07:28N 70°54' E 025°44'0 0.0
2017-Oct-09 06:58N 70°54' E 025°44'0 0.0
2017-Oct-09 06:28N 70°54' E 025°44'0 0.0
2017-Oct-09 05:58N 70°54' E 025°44'0 0.0
2017-Oct-09 05:28N 70°54' E 025°44'0 0.0
2017-Oct-09 04:58N 70°54' E 025°44'0 0.0
2017-Oct-09 04:28N 70°54' E 025°44'0 0.0
2017-Oct-09 03:58N 70°54' E 025°44'0 0.0
2017-Oct-09 03:28N 70°54' E 025°44'0 0.0
2017-Oct-09 02:58N 70°54' E 025°44'0 0.0
2017-Oct-09 02:28N 70°54' E 025°44'0 0.0
2017-Oct-09 01:58N 70°54' E 025°44'0 0.0
2017-Oct-09 01:28N 70°54' E 025°44'0 0.0
2017-Oct-09 00:58N 70°54' E 025°44'0 0.0
2017-Oct-09 00:28N 70°54' E 025°44'0 0.0
2017-Oct-08 23:58N 70°54' E 025°44'0 0.0
2017-Oct-08 23:28N 70°54' E 025°44'0 0.0
2017-Oct-08 22:58N 70°54' E 025°44'0 0.0
2017-Oct-08 22:28N 70°54' E 025°44'0 0.0
2017-Oct-08 21:58N 70°54' E 025°44'0 0.0
2017-Oct-08 21:28N 70°54' E 025°44'0 0.0
2017-Oct-08 20:58N 70°54' E 025°44'0 0.0
2017-Oct-08 20:28N 70°54' E 025°44'0 0.0
2017-Oct-08 19:58N 70°54' E 025°44'0 0.0
2017-Oct-08 19:28N 70°54' E 025°44'0 0.0
2017-Oct-08 18:58N 70°54' E 025°44'0 0.0
2017-Oct-08 18:28N 70°54' E 025°44'0 0.0
2017-Oct-08 17:58N 70°54' E 025°44'0 0.0
2017-Oct-08 17:28N 70°54' E 025°44'0 0.0
2017-Oct-08 16:58N 70°54' E 025°44'0 0.0
2017-Oct-08 16:28N 70°54' E 025°44'0 0.0
2017-Oct-08 15:58N 70°54' E 025°44'0 0.0
2017-Oct-08 15:28N 70°54' E 025°44'0 0.0
2017-Oct-08 14:58N 70°54' E 025°44'0 0.0
2017-Oct-08 14:28N 70°54' E 025°44'0 0.0
2017-Oct-08 13:58N 70°54' E 025°44'0 0.0
2017-Oct-08 13:28N 70°54' E 025°44'0 0.0
2017-Oct-08 12:58N 70°54' E 025°44'0 0.0
2017-Oct-08 12:28N 70°54' E 025°44'0 0.0
2017-Oct-08 11:58N 70°54' E 025°44'0 0.0
2017-Oct-08 11:28N 70°54' E 025°44'0 0.0
2017-Oct-08 11:01N 70°54' E 025°44'0 0.0
2017-Oct-08 10:31N 70°54' E 025°44'0 0.0
2017-Oct-08 10:00N 70°54' E 025°44'0 0.0
2017-Oct-08 09:30N 70°54' E 025°44'0 0.0
2017-Oct-08 09:00N 70°54' E 025°44'0 0.0
2017-Oct-08 08:30N 70°54' E 025°44'0 0.0
2017-Oct-08 08:00N 70°54' E 025°44'0 0.0
2017-Oct-08 07:30N 70°54' E 025°44'0 0.0
2017-Oct-08 07:00N 70°54' E 025°44'0 0.0
2017-Oct-08 06:30N 70°54' E 025°44'0 0.0
2017-Oct-08 06:00N 70°54' E 025°44'0 0.0
2017-Oct-08 05:30N 70°54' E 025°44'0 0.0
2017-Oct-08 05:00N 70°54' E 025°44'0 0.0
2017-Oct-08 04:30N 70°54' E 025°44'0 0.0
2017-Oct-08 04:00N 70°54' E 025°44'0 0.0
2017-Oct-08 03:30N 70°54' E 025°44'0 0.0
2017-Oct-08 03:00N 70°54' E 025°44'0 0.0
2017-Oct-08 02:30N 70°54' E 025°44'0 0.0
2017-Oct-08 02:00N 70°54' E 025°44'0 0.0
2017-Oct-08 01:30N 70°54' E 025°44'0 0.0
2017-Oct-08 01:00N 70°54' E 025°44'0 0.0
2017-Oct-08 00:30N 70°54' E 025°44'0 0.0
2017-Oct-08 00:00N 70°54' E 025°44'0 0.0
2017-Oct-07 23:30N 70°54' E 025°44'0 0.0
2017-Oct-07 23:00N 70°54' E 025°44'0 0.0
2017-Oct-07 22:30N 70°54' E 025°44'0 0.0
2017-Oct-07 22:00N 70°54' E 025°44'0 0.0
2017-Oct-07 21:30N 70°54' E 025°44'0 0.0
2017-Oct-07 21:00N 70°54' E 025°44'0 0.0
2017-Oct-07 20:30N 70°54' E 025°44'0 0.0
2017-Oct-07 20:00N 70°54' E 025°44'0 0.0
2017-Oct-07 19:30N 70°54' E 025°44'0 0.0
2017-Oct-07 19:00N 70°54' E 025°44'0 0.0
2017-Oct-07 18:30N 70°54' E 025°44'0 0.0
2017-Oct-07 18:00N 70°54' E 025°44'0 0.0
2017-Oct-07 17:30N 70°54' E 025°44'0 0.0
2017-Oct-07 17:00N 70°54' E 025°44'0 0.0
2017-Oct-07 16:30N 70°54' E 025°44'  

Dump ship's entire track history